sensor_id;sensor_type;location;lat;lon;timestamp;pressure;altitude;pressure_sealevel;temperature;humidity
46111;BME280;31849;55.992;37.252;2023-08-06T00:04:13;99391.03;;;21.25;62.16
46111;BME280;31849;55.992;37.252;2023-08-06T00:09:16;99399.91;;;21.24;62.04
46111;BME280;31849;55.992;37.252;2023-08-06T00:14:20;99398.28;;;21.22;61.96
46111;BME280;31849;55.992;37.252;2023-08-06T00:19:25;99396.31;;;21.25;61.88
46111;BME280;31849;55.992;37.252;2023-08-06T00:24:28;99398.41;;;21.19;62.02
46111;BME280;31849;55.992;37.252;2023-08-06T00:29:32;99405.53;;;21.17;62.14
46111;BME280;31849;55.992;37.252;2023-08-06T00:34:37;99409.28;;;21.13;62.18
46111;BME280;31849;55.992;37.252;2023-08-06T00:39:40;99406.06;;;21.06;62.15
46111;BME280;31849;55.992;37.252;2023-08-06T00:44:44;99409.84;;;21.00;62.17
46111;BME280;31849;55.992;37.252;2023-08-06T00:49:49;99403.69;;;21.00;62.49
46111;BME280;31849;55.992;37.252;2023-08-06T00:54:53;99398.50;;;20.98;62.46
46111;BME280;31849;55.992;37.252;2023-08-06T00:59:57;99399.41;;;20.97;62.29
46111;BME280;31849;55.992;37.252;2023-08-06T01:05:03;99401.75;;;21.03;62.09
46111;BME280;31849;55.992;37.252;2023-08-06T01:10:28;99401.75;;;21.03;62.18
46111;BME280;31849;55.992;37.252;2023-08-06T01:15:41;99403.19;;;20.91;62.59
46111;BME280;31849;55.992;37.252;2023-08-06T01:20:47;99402.69;;;20.83;62.92
46111;BME280;31849;55.992;37.252;2023-08-06T01:25:56;99389.84;;;20.76;62.72
46111;BME280;31849;55.992;37.252;2023-08-06T01:31:05;99411.91;;;20.75;62.72
46111;BME280;31849;55.992;37.252;2023-08-06T01:36:15;99412.59;;;20.78;63.00
46111;BME280;31849;55.992;37.252;2023-08-06T01:41:19;99421.63;;;20.74;62.73
46111;BME280;31849;55.992;37.252;2023-08-06T01:46:22;99420.75;;;20.73;62.52
46111;BME280;31849;55.992;37.252;2023-08-06T01:51:27;99426.69;;;20.79;62.99
46111;BME280;31849;55.992;37.252;2023-08-06T01:56:31;99434.53;;;20.80;62.61
46111;BME280;31849;55.992;37.252;2023-08-06T02:01:35;99434.53;;;20.80;62.52
46111;BME280;31849;55.992;37.252;2023-08-06T02:06:40;99441.34;;;20.86;62.47
46111;BME280;31849;55.992;37.252;2023-08-06T02:11:43;99438.63;;;20.87;62.32
46111;BME280;31849;55.992;37.252;2023-08-06T02:16:47;99433.22;;;20.90;62.12
46111;BME280;31849;55.992;37.252;2023-08-06T02:21:53;99425.91;;;20.96;62.22
46111;BME280;31849;55.992;37.252;2023-08-06T02:26:56;99435.28;;;21.03;61.75
46111;BME280;31849;55.992;37.252;2023-08-06T02:32:00;99441.09;;;21.11;61.63
46111;BME280;31849;55.992;37.252;2023-08-06T02:37:06;99435.22;;;21.23;61.44
46111;BME280;31849;55.992;37.252;2023-08-06T02:42:09;99436.72;;;21.29;61.27
46111;BME280;31849;55.992;37.252;2023-08-06T02:47:13;99441.41;;;21.41;61.17
46111;BME280;31849;55.992;37.252;2023-08-06T02:52:18;99436.13;;;21.60;60.77
46111;BME280;31849;55.992;37.252;2023-08-06T02:57:21;99440.91;;;21.71;60.28
46111;BME280;31849;55.992;37.252;2023-08-06T03:02:25;99437.53;;;21.87;60.11
46111;BME280;31849;55.992;37.252;2023-08-06T03:07:30;99439.91;;;22.09;60.08
46111;BME280;31849;55.992;37.252;2023-08-06T03:12:35;99444.16;;;22.30;60.19
46111;BME280;31849;55.992;37.252;2023-08-06T03:17:38;99439.88;;;22.63;59.55
46111;BME280;31849;55.992;37.252;2023-08-06T03:22:43;99430.59;;;22.88;58.89
46111;BME280;31849;55.992;37.252;2023-08-06T03:27:47;99433.59;;;23.15;58.36
46111;BME280;31849;55.992;37.252;2023-08-06T03:32:51;99434.28;;;23.50;57.52
46111;BME280;31849;55.992;37.252;2023-08-06T03:37:56;99431.47;;;23.84;56.70
46111;BME280;31849;55.992;37.252;2023-08-06T03:42:59;99429.44;;;24.05;56.13
46111;BME280;31849;55.992;37.252;2023-08-06T03:48:04;99428.25;;;24.39;55.49
46111;BME280;31849;55.992;37.252;2023-08-06T03:53:09;99442.66;;;24.95;54.68
46111;BME280;31849;55.992;37.252;2023-08-06T03:58:13;99442.66;;;25.92;52.52
46111;BME280;31849;55.992;37.252;2023-08-06T04:03:16;99436.66;;;30.08;42.39
46111;BME280;31849;55.992;37.252;2023-08-06T04:08:21;99440.44;;;33.61;38.16
46111;BME280;31849;55.992;37.252;2023-08-06T04:13:25;99435.28;;;34.22;34.86
46111;BME280;31849;55.992;37.252;2023-08-06T04:18:29;99426.41;;;35.67;32.37
46111;BME280;31849;55.992;37.252;2023-08-06T04:23:34;99434.16;;;37.57;29.58
46111;BME280;31849;55.992;37.252;2023-08-06T04:28:37;99436.06;;;37.79;28.19
46111;BME280;31849;55.992;37.252;2023-08-06T04:33:41;99440.44;;;38.80;27.04
46111;BME280;31849;55.992;37.252;2023-08-06T04:38:45;99444.50;;;39.35;26.29
46111;BME280;31849;55.992;37.252;2023-08-06T04:43:49;99435.00;;;39.83;25.30
46111;BME280;31849;55.992;37.252;2023-08-06T04:48:53;99436.41;;;41.75;23.16
46111;BME280;31849;55.992;37.252;2023-08-06T04:53:58;99442.88;;;42.88;22.40
46111;BME280;31849;55.992;37.252;2023-08-06T04:59:01;99448.13;;;42.90;21.90
46111;BME280;31849;55.992;37.252;2023-08-06T05:04:05;99444.72;;;42.87;22.18
46111;BME280;31849;55.992;37.252;2023-08-06T05:09:10;99433.16;;;44.08;20.31
46111;BME280;31849;55.992;37.252;2023-08-06T05:14:14;99448.09;;;46.45;18.15
46111;BME280;31849;55.992;37.252;2023-08-06T05:19:17;99441.91;;;47.71;17.28
46111;BME280;31849;55.992;37.252;2023-08-06T05:24:22;99433.38;;;46.75;18.22
46111;BME280;31849;55.992;37.252;2023-08-06T05:29:26;99433.34;;;48.02;16.66
46111;BME280;31849;55.992;37.252;2023-08-06T05:34:30;99428.34;;;47.99;16.01
46111;BME280;31849;55.992;37.252;2023-08-06T05:39:35;99429.22;;;48.04;16.26
46111;BME280;31849;55.992;37.252;2023-08-06T05:44:38;99422.06;;;48.37;15.78
46111;BME280;31849;55.992;37.252;2023-08-06T05:49:42;99427.97;;;48.46;15.72
46111;BME280;31849;55.992;37.252;2023-08-06T05:54:47;99417.47;;;49.09;15.44
46111;BME280;31849;55.992;37.252;2023-08-06T05:59:50;99420.69;;;49.23;14.87
46111;BME280;31849;55.992;37.252;2023-08-06T06:04:54;99415.31;;;49.66;15.20
46111;BME280;31849;55.992;37.252;2023-08-06T06:09:59;99417.38;;;51.25;13.90
46111;BME280;31849;55.992;37.252;2023-08-06T06:15:05;99415.13;;;51.16;13.53
46111;BME280;31849;55.992;37.252;2023-08-06T06:20:09;99413.28;;;51.48;13.18
46111;BME280;31849;55.992;37.252;2023-08-06T06:25:14;99392.31;;;50.83;13.08
46111;BME280;31849;55.992;37.252;2023-08-06T06:30:19;99402.47;;;50.62;13.81
46111;BME280;31849;55.992;37.252;2023-08-06T06:35:23;99408.75;;;51.11;13.38
46111;BME280;31849;55.992;37.252;2023-08-06T06:40:28;99403.88;;;51.69;12.71
46111;BME280;31849;55.992;37.252;2023-08-06T06:45:31;99406.88;;;51.58;12.87
46111;BME280;31849;55.992;37.252;2023-08-06T06:50:35;99401.16;;;50.80;13.29
46111;BME280;31849;55.992;37.252;2023-08-06T06:55:42;99404.41;;;51.56;13.03
46111;BME280;31849;55.992;37.252;2023-08-06T07:00:46;99406.31;;;51.30;12.95
46111;BME280;31849;55.992;37.252;2023-08-06T07:05:50;99399.47;;;50.69;13.02
46111;BME280;31849;55.992;37.252;2023-08-06T07:11:01;99401.84;;;50.07;13.50
46111;BME280;31849;55.992;37.252;2023-08-06T07:16:05;99391.72;;;50.23;13.67
46111;BME280;31849;55.992;37.252;2023-08-06T07:21:12;99392.59;;;49.91;13.50
46111;BME280;31849;55.992;37.252;2023-08-06T07:26:17;99388.50;;;49.94;13.35
46111;BME280;31849;55.992;37.252;2023-08-06T07:31:21;99381.88;;;50.43;13.54
46111;BME280;31849;55.992;37.252;2023-08-06T07:36:25;99380.34;;;50.14;13.52
46111;BME280;31849;55.992;37.252;2023-08-06T07:41:30;99377.16;;;49.08;13.85
46111;BME280;31849;55.992;37.252;2023-08-06T07:46:33;99372.63;;;48.14;14.68
46111;BME280;31849;55.992;37.252;2023-08-06T07:51:37;99373.38;;;47.29;15.21
46111;BME280;31849;55.992;37.252;2023-08-06T07:56:42;99366.81;;;48.32;14.75
46111;BME280;31849;55.992;37.252;2023-08-06T08:01:46;99359.25;;;47.54;15.04
46111;BME280;31849;55.992;37.252;2023-08-06T08:06:49;99355.34;;;47.84;15.05
46111;BME280;31849;55.992;37.252;2023-08-06T08:11:54;99362.09;;;46.73;15.71
46111;BME280;31849;55.992;37.252;2023-08-06T08:17:02;99348.91;;;45.87;16.63
46111;BME280;31849;55.992;37.252;2023-08-06T08:22:05;99346.00;;;44.98;17.19
46111;BME280;31849;55.992;37.252;2023-08-06T08:27:10;99352.94;;;44.26;17.85
46111;BME280;31849;55.992;37.252;2023-08-06T08:32:14;99341.66;;;43.01;18.12
46111;BME280;31849;55.992;37.252;2023-08-06T08:37:18;99321.06;;;41.46;20.47
46111;BME280;31849;55.992;37.252;2023-08-06T08:42:23;99335.09;;;40.68;21.54
46111;BME280;31849;55.992;37.252;2023-08-06T08:47:27;99327.69;;;39.49;22.67
46111;BME280;31849;55.992;37.252;2023-08-06T08:52:31;99328.56;;;38.46;23.26
46111;BME280;31849;55.992;37.252;2023-08-06T08:57:38;99322.03;;;37.64;24.60
46111;BME280;31849;55.992;37.252;2023-08-06T09:02:42;99312.19;;;37.25;24.68
46111;BME280;31849;55.992;37.252;2023-08-06T09:07:48;99317.09;;;36.90;25.25
46111;BME280;31849;55.992;37.252;2023-08-06T09:12:55;99309.19;;;37.12;25.07
46111;BME280;31849;55.992;37.252;2023-08-06T09:18:00;99324.75;;;36.22;26.30
46111;BME280;31849;55.992;37.252;2023-08-06T09:23:12;99308.56;;;36.14;26.46
46111;BME280;31849;55.992;37.252;2023-08-06T09:28:17;99305.03;;;35.97;26.92
46111;BME280;31849;55.992;37.252;2023-08-06T09:33:22;99299.47;;;35.82;27.36
46111;BME280;31849;55.992;37.252;2023-08-06T09:38:37;99297.81;;;35.81;27.52
46111;BME280;31849;55.992;37.252;2023-08-06T09:43:43;99296.94;;;35.64;28.03
46111;BME280;31849;55.992;37.252;2023-08-06T09:48:47;99291.16;;;35.10;28.42
46111;BME280;31849;55.992;37.252;2023-08-06T09:53:51;99284.22;;;35.23;29.11
46111;BME280;31849;55.992;37.252;2023-08-06T09:58:57;99279.31;;;35.02;29.70
46111;BME280;31849;55.992;37.252;2023-08-06T10:04:01;99270.06;;;34.70;30.31
46111;BME280;31849;55.992;37.252;2023-08-06T10:09:24;99264.00;;;34.77;29.86
46111;BME280;31849;55.992;37.252;2023-08-06T10:14:32;99259.78;;;34.66;30.25
46111;BME280;31849;55.992;37.252;2023-08-06T10:19:36;99245.88;;;34.95;29.77
46111;BME280;31849;55.992;37.252;2023-08-06T10:24:48;99244.53;;;35.24;30.12
46111;BME280;31849;55.992;37.252;2023-08-06T10:29:53;99239.63;;;35.03;29.62
46111;BME280;31849;55.992;37.252;2023-08-06T10:34:59;99246.69;;;34.87;30.05
46111;BME280;31849;55.992;37.252;2023-08-06T10:40:06;99238.41;;;34.81;30.67
46111;BME280;31849;55.992;37.252;2023-08-06T10:45:19;99236.66;;;34.72;30.82
46111;BME280;31849;55.992;37.252;2023-08-06T10:50:23;99231.34;;;34.45;31.12
46111;BME280;31849;55.992;37.252;2023-08-06T10:55:27;99229.97;;;34.41;30.88
46111;BME280;31849;55.992;37.252;2023-08-06T11:00:33;99232.63;;;34.76;30.72
46111;BME280;31849;55.992;37.252;2023-08-06T11:05:36;99228.59;;;34.80;31.17
46111;BME280;31849;55.992;37.252;2023-08-06T11:10:40;99226.66;;;34.56;30.97
46111;BME280;31849;55.992;37.252;2023-08-06T11:16:00;99225.78;;;34.47;31.39
46111;BME280;31849;55.992;37.252;2023-08-06T11:21:04;99205.09;;;34.64;30.78
46111;BME280;31849;55.992;37.252;2023-08-06T11:26:07;99224.69;;;34.74;31.31
46111;BME280;31849;55.992;37.252;2023-08-06T11:31:20;99210.13;;;34.59;31.07
46111;BME280;31849;55.992;37.252;2023-08-06T11:36:30;99220.88;;;34.08;31.48
46111;BME280;31849;55.992;37.252;2023-08-06T11:41:35;99209.78;;;34.11;31.14
46111;BME280;31849;55.992;37.252;2023-08-06T11:46:54;99215.91;;;33.87;32.26
46111;BME280;31849;55.992;37.252;2023-08-06T11:51:58;99206.75;;;34.14;31.74
46111;BME280;31849;55.992;37.252;2023-08-06T11:57:02;99204.16;;;34.30;31.57
46111;BME280;31849;55.992;37.252;2023-08-06T12:02:09;99197.63;;;34.49;30.65
46111;BME280;31849;55.992;37.252;2023-08-06T12:07:16;99189.91;;;34.63;32.43
46111;BME280;31849;55.992;37.252;2023-08-06T12:12:20;99187.66;;;34.42;31.10
46111;BME280;31849;55.992;37.252;2023-08-06T12:17:25;99174.00;;;34.43;31.87
46111;BME280;31849;55.992;37.252;2023-08-06T12:22:29;99186.47;;;34.36;32.50
46111;BME280;31849;55.992;37.252;2023-08-06T12:27:37;99179.31;;;33.84;32.86
46111;BME280;31849;55.992;37.252;2023-08-06T12:32:42;99182.13;;;33.56;32.92
46111;BME280;31849;55.992;37.252;2023-08-06T12:37:46;99173.47;;;33.71;31.98
46111;BME280;31849;55.992;37.252;2023-08-06T12:42:50;99168.91;;;33.97;32.33
46111;BME280;31849;55.992;37.252;2023-08-06T12:47:55;99173.63;;;33.95;31.86
46111;BME280;31849;55.992;37.252;2023-08-06T12:52:58;99173.16;;;34.08;32.30
46111;BME280;31849;55.992;37.252;2023-08-06T12:58:02;99176.78;;;33.82;32.21
46111;BME280;31849;55.992;37.252;2023-08-06T13:03:07;99169.78;;;33.45;33.15
46111;BME280;31849;55.992;37.252;2023-08-06T13:08:11;99158.63;;;33.66;33.02
46111;BME280;31849;55.992;37.252;2023-08-06T13:13:14;99160.91;;;33.53;32.50
46111;BME280;31849;55.992;37.252;2023-08-06T13:18:19;99157.59;;;33.33;32.94
46111;BME280;31849;55.992;37.252;2023-08-06T13:23:23;99140.44;;;32.98;33.50
46111;BME280;31849;55.992;37.252;2023-08-06T13:28:27;99155.66;;;33.07;33.88
46111;BME280;31849;55.992;37.252;2023-08-06T13:33:32;99152.13;;;33.07;33.22
46111;BME280;31849;55.992;37.252;2023-08-06T13:38:35;99147.56;;;33.25;33.17
46111;BME280;31849;55.992;37.252;2023-08-06T13:43:39;99142.75;;;33.37;33.25
46111;BME280;31849;55.992;37.252;2023-08-06T13:48:44;99137.75;;;33.69;32.70
46111;BME280;31849;55.992;37.252;2023-08-06T13:53:48;99125.91;;;33.61;32.71
46111;BME280;31849;55.992;37.252;2023-08-06T13:58:51;99131.25;;;33.53;33.01
46111;BME280;31849;55.992;37.252;2023-08-06T14:03:57;99131.88;;;33.47;33.42
46111;BME280;31849;55.992;37.252;2023-08-06T14:09:00;99131.63;;;33.32;33.12
46111;BME280;31849;55.992;37.252;2023-08-06T14:14:04;99132.44;;;33.06;33.70
46111;BME280;31849;55.992;37.252;2023-08-06T14:19:09;99127.34;;;33.03;34.20
46111;BME280;31849;55.992;37.252;2023-08-06T14:24:12;99130.41;;;33.08;34.25
46111;BME280;31849;55.992;37.252;2023-08-06T14:29:16;99125.13;;;32.99;33.81
46111;BME280;31849;55.992;37.252;2023-08-06T14:34:21;99112.84;;;32.96;34.25
46111;BME280;31849;55.992;37.252;2023-08-06T14:39:25;99131.38;;;32.99;34.07
46111;BME280;31849;55.992;37.252;2023-08-06T14:44:28;99110.91;;;32.88;33.97
46111;BME280;31849;55.992;37.252;2023-08-06T14:49:33;99113.13;;;32.75;34.31
46111;BME280;31849;55.992;37.252;2023-08-06T14:54:37;99103.97;;;32.50;34.73
46111;BME280;31849;55.992;37.252;2023-08-06T14:59:40;99113.69;;;32.42;35.08
46111;BME280;31849;55.992;37.252;2023-08-06T15:04:45;99117.66;;;32.38;35.86
46111;BME280;31849;55.992;37.252;2023-08-06T15:09:49;99105.50;;;32.52;35.09
46111;BME280;31849;55.992;37.252;2023-08-06T15:15:13;99108.13;;;32.44;35.30
46111;BME280;31849;55.992;37.252;2023-08-06T15:20:18;99113.28;;;32.37;35.54
46111;BME280;31849;55.992;37.252;2023-08-06T15:25:21;99107.88;;;32.19;35.77
46111;BME280;31849;55.992;37.252;2023-08-06T15:30:25;99113.09;;;32.21;35.77
46111;BME280;31849;55.992;37.252;2023-08-06T15:35:30;99105.41;;;31.98;36.38
46111;BME280;31849;55.992;37.252;2023-08-06T15:40:34;99106.03;;;31.92;36.26
46111;BME280;31849;55.992;37.252;2023-08-06T15:45:37;99103.38;;;31.82;36.32
46111;BME280;31849;55.992;37.252;2023-08-06T15:50:42;99108.50;;;31.76;36.69
46111;BME280;31849;55.992;37.252;2023-08-06T15:55:47;99107.13;;;31.62;37.42
46111;BME280;31849;55.992;37.252;2023-08-06T16:00:50;99104.34;;;31.53;37.79
46111;BME280;31849;55.992;37.252;2023-08-06T16:05:56;99108.44;;;31.48;37.87
46111;BME280;31849;55.992;37.252;2023-08-06T16:10:59;99110.56;;;31.44;38.10
46111;BME280;31849;55.992;37.252;2023-08-06T16:16:03;99110.47;;;31.26;38.23
46111;BME280;31849;55.992;37.252;2023-08-06T16:21:08;99117.00;;;31.14;39.10
46111;BME280;31849;55.992;37.252;2023-08-06T16:26:12;99111.94;;;31.11;39.37
46111;BME280;31849;55.992;37.252;2023-08-06T16:31:16;99105.16;;;31.07;38.84
46111;BME280;31849;55.992;37.252;2023-08-06T16:36:21;99104.16;;;30.78;39.59
46111;BME280;31849;55.992;37.252;2023-08-06T16:41:24;99112.47;;;30.65;39.31
46111;BME280;31849;55.992;37.252;2023-08-06T16:46:28;99124.66;;;30.60;39.99
46111;BME280;31849;55.992;37.252;2023-08-06T16:51:33;99119.97;;;30.42;40.13
46111;BME280;31849;55.992;37.252;2023-08-06T16:56:36;99116.09;;;30.25;40.39
46111;BME280;31849;55.992;37.252;2023-08-06T17:01:40;99123.34;;;29.94;40.93
46111;BME280;31849;55.992;37.252;2023-08-06T17:06:45;99116.28;;;29.83;41.30
46111;BME280;31849;55.992;37.252;2023-08-06T17:11:49;99113.97;;;29.78;40.93
46111;BME280;31849;55.992;37.252;2023-08-06T17:16:53;99113.66;;;29.72;41.21
46111;BME280;31849;55.992;37.252;2023-08-06T17:21:59;99116.38;;;29.51;41.32
46111;BME280;31849;55.992;37.252;2023-08-06T17:27:03;99129.06;;;29.27;42.42
46111;BME280;31849;55.992;37.252;2023-08-06T17:32:07;99127.09;;;29.08;42.71
46111;BME280;31849;55.992;37.252;2023-08-06T17:37:13;99121.13;;;29.05;43.00
46111;BME280;31849;55.992;37.252;2023-08-06T17:42:17;99125.97;;;28.90;43.12
46111;BME280;31849;55.992;37.252;2023-08-06T17:47:20;99124.91;;;28.81;43.18
46111;BME280;31849;55.992;37.252;2023-08-06T17:52:38;99126.78;;;28.69;43.49
46111;BME280;31849;55.992;37.252;2023-08-06T17:57:42;99121.09;;;28.63;43.39
46111;BME280;31849;55.992;37.252;2023-08-06T18:02:46;99128.63;;;28.57;43.67
46111;BME280;31849;55.992;37.252;2023-08-06T18:07:51;99131.22;;;28.48;44.28
46111;BME280;31849;55.992;37.252;2023-08-06T18:12:55;99132.34;;;28.34;44.34
46111;BME280;31849;55.992;37.252;2023-08-06T18:17:58;99128.94;;;28.32;44.37
46111;BME280;31849;55.992;37.252;2023-08-06T18:23:03;99120.94;;;28.32;44.19
46111;BME280;31849;55.992;37.252;2023-08-06T18:28:08;99124.97;;;28.15;44.43
46111;BME280;31849;55.992;37.252;2023-08-06T18:33:11;99119.03;;;28.00;45.06
46111;BME280;31849;55.992;37.252;2023-08-06T18:38:16;99114.03;;;27.95;44.68
46111;BME280;31849;55.992;37.252;2023-08-06T18:43:20;99115.13;;;27.81;45.29
46111;BME280;31849;55.992;37.252;2023-08-06T18:48:23;99117.31;;;27.76;45.18
46111;BME280;31849;55.992;37.252;2023-08-06T18:53:28;99113.06;;;27.62;45.61
46111;BME280;31849;55.992;37.252;2023-08-06T18:58:32;99113.19;;;27.61;45.20
46111;BME280;31849;55.992;37.252;2023-08-06T19:03:35;99114.78;;;27.52;45.73
46111;BME280;31849;55.992;37.252;2023-08-06T19:08:41;99118.19;;;27.54;45.64
46111;BME280;31849;55.992;37.252;2023-08-06T19:13:44;99116.84;;;27.48;45.89
46111;BME280;31849;55.992;37.252;2023-08-06T19:18:48;99117.94;;;27.46;45.68
46111;BME280;31849;55.992;37.252;2023-08-06T19:23:53;99119.50;;;27.37;46.02
46111;BME280;31849;55.992;37.252;2023-08-06T19:28:56;99118.59;;;27.25;46.24
46111;BME280;31849;55.992;37.252;2023-08-06T19:34:00;99123.09;;;27.25;46.24
46111;BME280;31849;55.992;37.252;2023-08-06T19:39:05;99116.41;;;27.19;46.50
46111;BME280;31849;55.992;37.252;2023-08-06T19:44:09;99111.25;;;27.05;46.78
46111;BME280;31849;55.992;37.252;2023-08-06T19:49:12;99113.78;;;26.95;47.34
46111;BME280;31849;55.992;37.252;2023-08-06T19:54:17;99114.75;;;26.94;47.25
46111;BME280;31849;55.992;37.252;2023-08-06T19:59:21;99106.81;;;26.81;47.74
46111;BME280;31849;55.992;37.252;2023-08-06T20:04:25;99107.63;;;26.70;48.23
46111;BME280;31849;55.992;37.252;2023-08-06T20:09:30;99104.88;;;26.59;48.62
46111;BME280;31849;55.992;37.252;2023-08-06T20:14:33;99107.88;;;26.43;48.93
46111;BME280;31849;55.992;37.252;2023-08-06T20:19:37;99102.13;;;26.36;49.47
46111;BME280;31849;55.992;37.252;2023-08-06T20:24:43;99096.94;;;26.22;49.70
46111;BME280;31849;55.992;37.252;2023-08-06T20:29:46;99098.72;;;26.10;50.39
46111;BME280;31849;55.992;37.252;2023-08-06T20:34:50;99103.09;;;25.98;50.47
46111;BME280;31849;55.992;37.252;2023-08-06T20:39:55;99106.28;;;25.90;49.86
46111;BME280;31849;55.992;37.252;2023-08-06T20:44:58;99102.69;;;25.78;50.84
46111;BME280;31849;55.992;37.252;2023-08-06T20:50:01;99099.28;;;25.76;49.84
46111;BME280;31849;55.992;37.252;2023-08-06T20:55:07;99097.72;;;25.61;51.94
46111;BME280;31849;55.992;37.252;2023-08-06T21:00:12;99096.53;;;25.65;51.66
46111;BME280;31849;55.992;37.252;2023-08-06T21:05:16;99097.28;;;25.67;51.27
46111;BME280;31849;55.992;37.252;2023-08-06T21:10:21;99106.66;;;25.73;51.20
46111;BME280;31849;55.992;37.252;2023-08-06T21:15:25;99110.28;;;25.59;51.47
46111;BME280;31849;55.992;37.252;2023-08-06T21:20:28;99103.88;;;25.49;51.98
46111;BME280;31849;55.992;37.252;2023-08-06T21:25:33;99097.28;;;25.54;51.75
46111;BME280;31849;55.992;37.252;2023-08-06T21:30:37;99106.88;;;25.44;52.31
46111;BME280;31849;55.992;37.252;2023-08-06T21:35:40;99109.97;;;25.38;52.31
46111;BME280;31849;55.992;37.252;2023-08-06T21:40:45;99107.81;;;25.43;51.10
46111;BME280;31849;55.992;37.252;2023-08-06T21:45:48;99110.50;;;25.30;52.49
46111;BME280;31849;55.992;37.252;2023-08-06T21:50:52;99115.34;;;25.23;52.87
46111;BME280;31849;55.992;37.252;2023-08-06T21:55:58;99111.13;;;25.21;52.95
46111;BME280;31849;55.992;37.252;2023-08-06T22:01:01;99113.84;;;25.19;52.71
46111;BME280;31849;55.992;37.252;2023-08-06T22:06:06;99114.59;;;25.08;53.66
46111;BME280;31849;55.992;37.252;2023-08-06T22:11:13;99110.66;;;25.01;53.73
46111;BME280;31849;55.992;37.252;2023-08-06T22:16:17;99118.41;;;24.91;53.95
46111;BME280;31849;55.992;37.252;2023-08-06T22:21:21;99110.84;;;24.85;53.89
46111;BME280;31849;55.992;37.252;2023-08-06T22:26:26;99112.84;;;24.82;53.94
46111;BME280;31849;55.992;37.252;2023-08-06T22:31:29;99106.78;;;24.80;54.07
46111;BME280;31849;55.992;37.252;2023-08-06T22:36:33;99101.44;;;24.67;54.50
46111;BME280;31849;55.992;37.252;2023-08-06T22:41:38;99107.94;;;24.75;54.47
46111;BME280;31849;55.992;37.252;2023-08-06T22:46:41;99110.75;;;24.60;54.76
46111;BME280;31849;55.992;37.252;2023-08-06T22:51:45;99104.53;;;24.46;55.18
46111;BME280;31849;55.992;37.252;2023-08-06T22:56:50;99097.53;;;24.45;55.16
46111;BME280;31849;55.992;37.252;2023-08-06T23:01:54;99097.69;;;24.42;55.30
46111;BME280;31849;55.992;37.252;2023-08-06T23:06:58;99096.41;;;24.35;55.45
46111;BME280;31849;55.992;37.252;2023-08-06T23:12:04;99099.31;;;24.45;55.31
46111;BME280;31849;55.992;37.252;2023-08-06T23:17:08;99099.81;;;24.37;55.29
46111;BME280;31849;55.992;37.252;2023-08-06T23:22:11;99090.81;;;24.39;55.41
46111;BME280;31849;55.992;37.252;2023-08-06T23:27:16;99096.22;;;24.38;55.58
46111;BME280;31849;55.992;37.252;2023-08-06T23:32:20;99095.00;;;24.29;55.92
46111;BME280;31849;55.992;37.252;2023-08-06T23:37:23;99090.09;;;24.23;56.07
46111;BME280;31849;55.992;37.252;2023-08-06T23:42:28;99095.63;;;24.20;56.03
46111;BME280;31849;55.992;37.252;2023-08-06T23:47:32;99082.81;;;24.12;56.67
46111;BME280;31849;55.992;37.252;2023-08-06T23:52:36;99087.47;;;24.09;56.29
46111;BME280;31849;55.992;37.252;2023-08-06T23:57:41;99083.88;;;24.10;56.74
